Time;durP1;ratioP1;P1;durP2;ratioP2;P2;SDS_P1;SDS_P2;PMS_P1;PMS_P2;Temp;Humidity;BMP_temperature;BMP_pressure;BME280_temperature;BME280_humidity;BME280_pressure;Samples;Min_cycle;Max_cycle;Signal;HPM_P1;HPM_P2
2022/12/29 09:53:01;;;;;;;;;;;;;;;11.37;58.20;97008.53;4229864;27;10188;-70
2022/12/29 09:55:10;;;;;;;;;;;;;;;11.69;57.66;97011.59;4230422;28;6435;-70
2022/12/29 09:57:20;;;;;;;;;;;;;;;11.94;57.21;97014.63;4232092;27;5696;-69
2022/12/29 09:59:27;;;;;;;;;;;;;;;12.12;57.00;97017.56;4227655;27;5608;-70
2022/12/29 10:01:34;;;;;;;;;;;;;;;12.27;56.95;97016.59;4217014;27;5761;-69
2022/12/29 10:03:47;;;;;;;;;;;;;;;12.40;56.55;97016.66;4227868;28;5952;-71
2022/12/29 10:05:55;;;;;;;;;;;;;;;12.47;56.69;97022.81;4228600;28;5770;-71
2022/12/29 10:08:14;;;;;;;;;;;;;;;12.53;56.41;97024.63;4222767;28;5631;-70
2022/12/29 10:10:30;;;;;;;;;;;;;;;12.61;56.52;97027.13;4230477;28;5699;-71
2022/12/29 10:12:52;;;;;;;;;;;;;;;12.66;56.61;97026.50;4219080;27;5629;-71
2022/12/29 10:15:05;;;;;;;;;;;;;;;12.74;56.34;97011.22;4225459;28;5806;-72
2022/12/29 10:17:21;;;;;;;;;;;;;;;12.81;56.18;96982.88;4227928;28;5703;-71
2022/12/29 10:19:47;;;;;;;;;;;;;;;12.83;56.15;96980.03;4225516;28;5795;-72
2022/12/29 10:22:05;;;;;;;;;;;;;;;12.86;56.45;96987.56;4228921;28;5774;-71
2022/12/29 10:24:13;;;;;;;;;;;;;;;12.85;56.25;96995.75;4225691;28;5270;-71
2022/12/29 10:26:19;;;;;;;;;;;;;;;12.86;56.51;96982.28;4219896;28;7675;-71
2022/12/29 10:28:25;;;;;;;;;;;;;;;12.90;56.45;96977.38;4224663;28;5794;-71
2022/12/29 10:30:28;;;;;;;;;;;;;;;12.90;56.16;96972.88;4231204;27;5636;-74
2022/12/29 10:32:38;;;;;;;;;;;;;;;12.92;56.13;96978.00;4229460;28;5692;-73
2022/12/29 10:34:46;;;;;;;;;;;;;;;12.94;56.40;96973.31;4232281;27;6459;-75
2022/12/29 10:36:51;;;;;;;;;;;;;;;12.95;56.27;96965.13;4227453;28;5829;-69
2022/12/29 10:39:03;;;;;;;;;;;;;;;12.99;56.45;96962.88;4224881;27;5743;-72
2022/12/29 10:41:17;;;;;;;;;;;;;;;13.01;56.10;96961.66;4225051;28;5657;-72
2022/12/29 10:43:25;;;;;;;;;;;;;;;13.04;56.33;96950.66;4221201;28;5612;-72
2022/12/29 10:45:32;;;;;;;;;;;;;;;13.07;56.26;96950.22;4222117;28;5710;-72
2022/12/29 10:47:40;;;;;;;;;;;;;;;13.10;56.30;96941.03;4227810;28;5762;-71
2022/12/29 10:49:46;;;;;;;;;;;;;;;13.12;56.26;96936.34;4228179;28;5731;-72
2022/12/29 10:51:51;;;;;;;;;;;;;;;13.15;55.81;96938.59;4227865;28;5722;-71
2022/12/29 10:54:01;;;;;;;;;;;;;;;13.18;55.73;96926.75;4213237;28;6452;-71
2022/12/29 10:56:13;;;;;;;;;;;;;;;13.20;55.92;96925.53;4218590;28;5707;-73
2022/12/29 10:58:17;;;;;;;;;;;;;;;13.20;55.96;96924.72;4219146;28;5601;-67
2022/12/29 11:00:22;;;;;;;;;;;;;;;13.21;55.80;96919.22;4218713;28;5609;-68
2022/12/29 11:02:49;;;;;;;;;;;;;;;13.24;56.02;96910.81;4229497;28;5597;-68
2022/12/29 11:04:59;;;;;;;;;;;;;;;13.27;55.50;96910.44;4218830;28;5645;-66
2022/12/29 11:07:03;;;;;;;;;;;;;;;13.28;55.80;96900.63;4218609;28;5608;-65
2022/12/29 11:09:13;;;;;;;;;;;;;;;13.28;55.32;96896.13;4218484;28;5616;-67
2022/12/29 11:11:26;;;;;;;;;;;;;;;13.28;55.40;96882.84;4218906;28;5707;-70
2022/12/29 11:13:30;;;;;;;;;;;;;;;13.27;55.59;96889.19;4217728;28;5692;-66
2022/12/29 11:15:41;;;;;;;;;;;;;;;13.27;55.29;96891.03;4216180;28;5766;-65
2022/12/29 11:17:47;;;;;;;;;;;;;;;13.26;55.20;96876.13;4221428;28;6282;-69
2022/12/29 11:19:49;;;;;;;;;;;;;;;13.25;55.39;96864.69;4218268;28;5711;-66
2022/12/29 11:21:53;;;;;;;;;;;;;;;13.25;55.02;96862.03;4214985;28;5711;-65
2022/12/29 11:23:59;;;;;;;;;;;;;;;13.26;55.29;96879.59;4220059;28;5711;-69
2022/12/29 11:26:21;;;;;;;;;;;;;;;13.26;55.19;96879.59;4221589;28;5671;-67
2022/12/29 11:28:30;;;;;;;;;;;;;;;13.26;55.28;96876.94;4218585;28;5616;-68
2022/12/29 11:30:33;;;;;;;;;;;;;;;13.28;54.92;96868.78;4218208;28;5937;-70
2022/12/29 11:32:36;;;;;;;;;;;;;;;13.28;54.95;96869.59;4220333;28;7002;-70
2022/12/29 11:34:38;;;;;;;;;;;;;;;13.30;55.24;96875.50;4214594;28;5703;-70
2022/12/29 11:36:41;;;;;;;;;;;;;;;13.31;55.15;96863.84;4215063;28;5829;-69
2022/12/29 11:38:49;;;;;;;;;;;;;;;13.33;54.83;96867.09;4217990;28;5724;-72
2022/12/29 11:40:52;;;;;;;;;;;;;;;13.37;54.88;96859.56;4210340;28;5731;-68
2022/12/29 11:42:59;;;;;;;;;;;;;;;13.37;54.94;96857.72;4218237;28;5833;-69
2022/12/29 11:45:07;;;;;;;;;;;;;;;13.38;54.63;96851.38;4213146;28;5612;-63
2022/12/29 11:47:23;;;;;;;;;;;;;;;13.39;54.91;96853.00;4212981;28;5826;-68
2022/12/29 11:49:27;;;;;;;;;;;;;;;13.43;54.58;96845.44;4217130;28;5702;-66
2022/12/29 11:51:35;;;;;;;;;;;;;;;13.44;54.55;96841.75;4213403;28;5716;-66
2022/12/29 11:53:43;;;;;;;;;;;;;;;13.47;54.44;96837.84;4213559;28;5687;-67
2022/12/29 11:55:53;;;;;;;;;;;;;;;13.50;54.70;96840.09;4216458;28;5793;-69
2022/12/29 11:58:01;;;;;;;;;;;;;;;13.52;54.46;96838.06;4213288;28;5735;-69
2022/12/29 12:00:16;;;;;;;;;;;;;;;13.52;54.42;96840.72;4215956;28;5703;-68
2022/12/29 12:02:43;;;;;;;;;;;;;;;13.51;54.35;96842.53;4215717;28;5612;-64
2022/12/29 12:04:46;;;;;;;;;;;;;;;13.51;54.18;96839.91;4218500;28;5616;-66
2022/12/29 12:06:56;;;;;;;;;;;;;;;13.50;54.31;96843.56;4216522;28;5616;-64
2022/12/29 12:09:06;;;;;;;;;;;;;;;13.49;54.20;96839.28;4214446;28;5730;-62
2022/12/29 12:11:14;;;;;;;;;;;;;;;13.48;54.50;96844.78;4213499;28;5786;-63
2022/12/29 12:13:26;;;;;;;;;;;;;;;13.46;54.34;96850.31;4214636;28;6072;-70
2022/12/29 12:15:36;;;;;;;;;;;;;;;13.46;54.43;96852.16;4212746;28;5608;-68
2022/12/29 12:17:52;;;;;;;;;;;;;;;13.42;54.28;96853.59;4213750;28;5706;-68
2022/12/29 12:20:02;;;;;;;;;;;;;;;13.44;54.11;96860.34;4214450;28;5827;-71
2022/12/29 12:22:14;;;;;;;;;;;;;;;13.46;54.36;96862.78;4213694;28;5720;-70
2022/12/29 12:24:40;;;;;;;;;;;;;;;13.44;54.43;96857.69;4208827;28;5687;-68
2022/12/29 12:26:55;;;;;;;;;;;;;;;13.45;54.23;96861.97;4215724;28;5680;-68
2022/12/29 12:29:05;;;;;;;;;;;;;;;13.44;54.18;96862.19;4211927;28;5680;-64
2022/12/29 12:31:19;;;;;;;;;;;;;;;13.43;54.07;96865.84;4212463;28;5734;-63
2022/12/29 12:33:28;;;;;;;;;;;;;;;13.40;54.48;96859.94;4214975;28;5774;-68
2022/12/29 12:35:45;;;;;;;;;;;;;;;13.42;54.23;96869.53;4214357;28;5732;-69
2022/12/29 12:38:08;;;;;;;;;;;;;;;13.42;54.25;96861.56;4214229;28;5613;-71
2022/12/29 12:40:58;;;;;;;;;;;;;;;13.40;54.34;96862.59;4215937;28;5885;-65
2022/12/29 12:43:18;;;;;;;;;;;;;;;13.36;54.64;96858.75;4214068;28;5608;-63
2022/12/29 12:45:40;;;;;;;;;;;;;;;13.28;54.98;96858.97;4213828;28;5699;-68
2022/12/29 12:47:59;;;;;;;;;;;;;;;13.22;54.93;96846.50;4211863;28;5688;-68
2022/12/29 12:50:34;;;;;;;;;;;;;;;13.19;55.09;96848.78;4210052;28;5823;-61
2022/12/29 12:52:47;;;;;;;;;;;;;;;13.20;55.20;96842.44;4197977;28;5612;-61
2022/12/29 12:55:08;;;;;;;;;;;;;;;13.20;55.33;96834.47;4212733;28;5516;-62
2022/12/29 12:57:20;;;;;;;;;;;;;;;13.21;55.50;96842.22;4213812;28;5842;-62
2022/12/29 12:59:35;;;;;;;;;;;;;;;13.23;55.49;96839.34;4212059;28;5956;-61
2022/12/29 13:01:51;;;;;;;;;;;;;;;13.24;55.57;96838.34;4213690;28;5615;-61
2022/12/29 13:04:08;;;;;;;;;;;;;;;13.24;55.66;96841.81;4212645;28;5834;-62
2022/12/29 13:06:23;;;;;;;;;;;;;;;13.24;56.05;96846.28;4223326;28;6298;-61
2022/12/29 13:08:40;;;;;;;;;;;;;;;13.25;56.23;96843.47;4198008;28;5647;-61
2022/12/29 13:10:51;;;;;;;;;;;;;;;13.27;56.26;96854.69;4216813;28;5743;-61
2022/12/29 13:13:03;;;;;;;;;;;;;;;13.27;56.16;96849.38;4207946;28;5722;-61
2022/12/29 13:15:19;;;;;;;;;;;;;;;13.27;56.36;96845.91;4211615;28;5633;-61
2022/12/29 13:17:31;;;;;;;;;;;;;;;13.31;56.36;96852.41;4212082;28;5711;-61
2022/12/29 13:19:42;;;;;;;;;;;;;;;13.30;56.22;96843.63;4216817;27;5604;-62
2022/12/29 13:21:59;;;;;;;;;;;;;;;13.30;56.30;96843.63;4216984;28;5640;-62
2022/12/29 13:24:18;;;;;;;;;;;;;;;13.32;56.77;96836.28;4210223;28;6353;-62
2022/12/29 13:26:29;;;;;;;;;;;;;;;13.34;56.63;96839.53;4217250;28;5611;-62
2022/12/29 13:28:39;;;;;;;;;;;;;;;13.32;56.37;96830.97;4216332;28;5699;-61
2022/12/29 13:30:49;;;;;;;;;;;;;;;13.27;56.73;96832.63;4217337;28;5700;-62
2022/12/29 13:33:03;;;;;;;;;;;;;;;13.19;56.89;96824.88;4216199;28;5660;-61
2022/12/29 13:35:20;;;;;;;;;;;;;;;13.13;56.64;96819.34;4211038;28;5602;-62
2022/12/29 13:37:28;;;;;;;;;;;;;;;13.10;56.76;96825.06;4213855;28;5695;-61
2022/12/29 13:39:35;;;;;;;;;;;;;;;13.08;56.83;96815.69;4213216;28;5633;-61
2022/12/29 13:41:44;;;;;;;;;;;;;;;13.05;56.89;96805.50;4214835;28;5635;-61
2022/12/29 13:43:50;;;;;;;;;;;;;;;13.01;56.79;96807.72;4216148;28;5725;-61
2022/12/29 13:46:00;;;;;;;;;;;;;;;13.03;56.80;96799.59;4217038;28;5661;-61
2022/12/29 13:48:12;;;;;;;;;;;;;;;13.05;56.72;96798.34;4214892;28;5073;-61
2022/12/29 13:50:19;;;;;;;;;;;;;;;13.09;56.94;96796.09;4198270;28;6446;-61
2022/12/29 13:52:28;;;;;;;;;;;;;;;13.09;56.91;96791.59;4213227;28;6607;-61
2022/12/29 13:54:40;;;;;;;;;;;;;;;13.11;56.92;96791.38;4215662;28;6493;-61
2022/12/29 13:56:51;;;;;;;;;;;;;;;13.11;56.71;96783.41;4219790;28;5698;-61
2022/12/29 13:58:59;;;;;;;;;;;;;;;13.10;56.71;96781.78;4216769;28;5328;-64
2022/12/29 14:01:09;;;;;;;;;;;;;;;13.11;57.10;96789.53;4212077;28;6290;-74
2022/12/29 14:03:28;;;;;;;;;;;;;;;13.12;57.06;96779.72;4211224;28;5616;-65
2022/12/29 14:05:33;;;;;;;;;;;;;;;13.11;56.71;96778.91;4213159;28;5631;-65
2022/12/29 14:07:39;;;;;;;;;;;;;;;13.13;57.04;96776.88;4213034;28;5648;-77
2022/12/29 14:09:47;;;;;;;;;;;;;;;13.16;56.81;96777.50;4215245;28;5710;-65
2022/12/29 14:11:50;;;;;;;;;;;;;;;13.17;57.07;96776.47;4213052;28;5667;-64
2022/12/29 14:13:52;;;;;;;;;;;;;;;13.15;56.67;96767.91;4211725;28;5747;-64
2022/12/29 14:15:58;;;;;;;;;;;;;;;13.09;56.86;96773.00;4212577;28;5849;-64
2022/12/29 14:18:11;;;;;;;;;;;;;;;13.05;56.86;96769.16;4209518;28;6289;-64
2022/12/29 14:20:23;;;;;;;;;;;;;;;13.05;56.99;96758.53;4214587;28;5775;-64
2022/12/29 14:22:28;;;;;;;;;;;;;;;13.05;56.94;96769.16;4214039;28;5728;-64
2022/12/29 14:24:46;;;;;;;;;;;;;;;13.08;57.17;96773.22;4214132;28;5611;-64
2022/12/29 14:26:48;;;;;;;;;;;;;;;13.09;57.13;96773.00;4211532;28;5956;-64
2022/12/29 14:28:51;;;;;;;;;;;;;;;13.11;57.16;96773.63;4217934;28;5583;-65
2022/12/29 14:30:56;;;;;;;;;;;;;;;13.09;56.86;96774.84;4211375;28;7687;-64
2022/12/29 14:33:04;;;;;;;;;;;;;;;13.08;57.08;96776.69;4215719;28;5729;-65
2022/12/29 14:35:43;;;;;;;;;;;;;;;13.07;57.07;96772.41;4215480;28;5607;-64
2022/12/29 14:37:46;;;;;;;;;;;;;;;13.09;57.13;96780.16;4150015;28;6049;-67
2022/12/29 14:39:49;;;;;;;;;;;;;;;13.10;57.15;96784.44;4147157;28;5700;-70
2022/12/29 14:42:00;;;;;;;;;;;;;;;13.13;57.12;96786.66;4149134;28;5819;-70
2022/12/29 14:44:20;;;;;;;;;;;;;;;13.13;57.48;96779.53;4150412;28;5857;-71
2022/12/29 14:46:24;;;;;;;;;;;;;;;13.17;57.19;96792.41;4148666;28;5779;-71
2022/12/29 14:48:40;;;;;;;;;;;;;;;13.17;57.27;96792.41;4150178;28;5776;-70
2022/12/29 14:50:45;;;;;;;;;;;;;;;13.17;57.29;96795.88;4150779;28;5940;-70
2022/12/29 14:52:52;;;;;;;;;;;;;;;13.19;57.53;96793.03;4151800;28;6887;-76
2022/12/29 14:55:31;;;;;;;;;;;;;;;13.20;57.43;96792.81;4148305;28;5940;-73
2022/12/29 14:57:37;;;;;;;;;;;;;;;13.21;57.75;96796.28;4150747;28;5920;-70
2022/12/29 14:59:40;;;;;;;;;;;;;;;13.21;57.69;96796.28;4151092;28;5600;-66
2022/12/29 15:01:48;;;;;;;;;;;;;;;13.21;57.48;96794.44;4148185;28;5861;-67
2022/12/29 15:03:54;;;;;;;;;;;;;;;13.22;57.56;96790.75;4152270;28;5793;-68
2022/12/29 15:06:05;;;;;;;;;;;;;;;13.23;57.68;96787.09;4149684;28;5801;-70
2022/12/29 15:08:13;;;;;;;;;;;;;;;13.23;57.58;96776.47;4158015;28;6025;-71
2022/12/29 15:10:22;;;;;;;;;;;;;;;13.24;57.86;96790.53;4196574;28;5733;-69
2022/12/29 15:12:34;;;;;;;;;;;;;;;13.23;57.91;96789.72;4214914;28;5834;-73
2022/12/29 15:14:40;;;;;;;;;;;;;;;13.23;58.08;96787.09;4217713;28;5707;-70
2022/12/29 15:16:43;;;;;;;;;;;;;;;13.21;58.09;96781.16;4216444;28;5706;-69
2022/12/29 15:18:45;;;;;;;;;;;;;;;13.21;58.13;96788.31;4216420;28;5857;-69
2022/12/29 15:20:52;;;;;;;;;;;;;;;13.22;58.25;96788.09;4217148;28;5759;-67
2022/12/29 15:22:59;;;;;;;;;;;;;;;13.24;58.21;96782.59;4212943;28;5691;-68
2022/12/29 15:25:02;;;;;;;;;;;;;;;13.24;58.35;96782.59;4213741;28;5604;-68
2022/12/29 15:27:06;;;;;;;;;;;;;;;13.24;58.25;96790.53;4217905;28;5695;-71
2022/12/29 15:29:30;;;;;;;;;;;;;;;13.24;58.17;96794.00;4216013;28;5628;-74
2022/12/29 15:31:33;;;;;;;;;;;;;;;13.24;58.21;96788.72;4217344;28;5618;-83
2022/12/29 15:33:40;;;;;;;;;;;;;;;13.24;58.21;96771.97;4217108;28;5699;-71
2022/12/29 15:35:43;;;;;;;;;;;;;;;13.24;58.61;96779.94;4217259;28;5688;-70
2022/12/29 15:37:46;;;;;;;;;;;;;;;13.23;58.57;96787.09;4215653;28;5889;-70
2022/12/29 15:39:52;;;;;;;;;;;;;;;13.21;58.55;96781.16;4216292;28;5635;-76
2022/12/29 15:42:00;;;;;;;;;;;;;;;13.23;58.50;96776.47;4214716;28;5620;-71
2022/12/29 15:44:14;;;;;;;;;;;;;;;13.23;58.54;96759.72;4214845;28;5723;-75
2022/12/29 15:46:17;;;;;;;;;;;;;;;13.22;58.59;96763.41;4215595;28;5813;-70
2022/12/29 15:48:23;;;;;;;;;;;;;;;13.22;58.68;96768.72;4212522;28;5732;-67
2022/12/29 15:50:29;;;;;;;;;;;;;;;13.19;58.89;96758.53;4214932;28;5774;-69
2022/12/29 15:52:34;;;;;;;;;;;;;;;13.24;58.87;96756.84;4213593;28;5700;-78
2022/12/29 15:54:37;;;;;;;;;;;;;;;13.24;58.77;96748.06;4214684;28;5608;-74
2022/12/29 15:56:42;;;;;;;;;;;;;;;13.24;58.81;96745.41;4215715;28;5718;-72
2022/12/29 15:58:48;;;;;;;;;;;;;;;13.25;58.58;96739.94;4213688;28;5719;-71
2022/12/29 16:00:53;;;;;;;;;;;;;;;13.25;58.59;96739.94;4215731;28;5604;-73
2022/12/29 16:02:59;;;;;;;;;;;;;;;13.25;58.74;96753.19;4211102;28;5805;-72
2022/12/29 16:05:02;;;;;;;;;;;;;;;13.24;58.67;96756.03;4213689;28;5092;-72
2022/12/29 16:07:27;;;;;;;;;;;;;;;13.23;59.00;96771.16;4216600;28;6416;-72
2022/12/29 16:09:31;;;;;;;;;;;;;;;13.24;59.01;96772.78;4213937;28;5859;-72
2022/12/29 16:11:38;;;;;;;;;;;;;;;13.24;59.02;96772.78;4217008;28;5695;-72
2022/12/29 16:13:42;;;;;;;;;;;;;;;13.24;58.70;96772.78;4215896;28;5608;-72
2022/12/29 16:15:46;;;;;;;;;;;;;;;13.25;58.81;96768.28;4216433;28;5647;-71
2022/12/29 16:17:55;;;;;;;;;;;;;;;13.25;58.83;96774.44;4215338;28;5656;-71
2022/12/29 16:20:00;;;;;;;;;;;;;;;13.23;58.70;96780.97;4209305;28;5632;-71
2022/12/29 16:22:09;;;;;;;;;;;;;;;13.19;58.80;96777.09;4216880;28;5607;-72
2022/12/29 16:24:16;;;;;;;;;;;;;;;13.18;59.06;96773.59;4217065;28;5839;-72
2022/12/29 16:26:20;;;;;;;;;;;;;;;13.18;59.08;96770.94;4216936;28;5616;-72
2022/12/29 16:28:25;;;;;;;;;;;;;;;13.19;59.25;96764.66;4216283;28;5702;-71
2022/12/29 16:30:32;;;;;;;;;;;;;;;13.20;59.04;96771.56;4215341;28;5627;-72
2022/12/29 16:32:45;;;;;;;;;;;;;;;13.20;59.03;96768.13;4216901;28;5679;-72
2022/12/29 16:34:48;;;;;;;;;;;;;;;13.20;59.18;96774.22;4216734;28;5615;-72
2022/12/29 16:36:56;;;;;;;;;;;;;;;13.22;59.11;96774.03;4216595;28;5925;-72
2022/12/29 16:39:21;;;;;;;;;;;;;;;13.21;58.92;96778.50;4215826;28;5763;-72
2022/12/29 16:41:31;;;;;;;;;;;;;;;13.21;59.29;96786.47;4216075;28;5617;-71
2022/12/29 16:43:41;;;;;;;;;;;;;;;13.21;59.16;96786.47;4216438;28;5698;-71
2022/12/29 16:46:21;;;;;;;;;;;;;;;13.20;59.34;96776.06;4215939;28;5800;-72
2022/12/29 16:48:26;;;;;;;;;;;;;;;13.21;59.31;96783.81;4216588;28;5608;-72
2022/12/29 16:50:29;;;;;;;;;;;;;;;13.21;59.28;96783.81;4215291;28;5747;-71
2022/12/29 16:52:35;;;;;;;;;;;;;;;13.21;59.28;96786.47;4211319;28;6490;-71
2022/12/29 16:54:39;;;;;;;;;;;;;;;13.21;59.08;96778.50;4212677;28;5787;-63
2022/12/29 16:56:45;;;;;;;;;;;;;;;13.19;59.03;96785.88;4211244;28;5738;-63
2022/12/29 16:58:49;;;;;;;;;;;;;;;13.16;58.93;96783.63;4213611;28;5835;-63
2022/12/29 17:00:56;;;;;;;;;;;;;;;13.11;59.08;96791.38;4213522;28;5616;-63
2022/12/29 17:03:01;;;;;;;;;;;;;;;13.13;59.25;96797.28;4208915;28;5846;-71
2022/12/29 17:05:05;;;;;;;;;;;;;;;13.12;59.47;96800.97;4215759;28;5624;-72
2022/12/29 17:07:16;;;;;;;;;;;;;;;13.11;59.26;96800.16;4214745;28;5611;-72
2022/12/29 17:09:22;;;;;;;;;;;;;;;13.11;59.21;96805.47;4214732;28;5818;-71
2022/12/29 17:13:57;;;;;;;;;;;;;;;13.11;59.30;96802.00;4207292;28;5875;-72
2022/12/29 17:16:00;;;;;;;;;;;;;;;13.09;59.62;96812.00;4214437;28;5794;-72
2022/12/29 17:18:04;;;;;;;;;;;;;;;13.09;59.43;96806.69;4214747;28;5604;-72
2022/12/29 17:20:17;;;;;;;;;;;;;;;13.10;59.60;96813.63;4215405;28;5108;-73
2022/12/29 17:22:23;;;;;;;;;;;;;;;13.11;59.50;96820.56;4216449;28;5782;-74
2022/12/29 17:24:27;;;;;;;;;;;;;;;13.12;59.67;96808.94;4213467;28;5695;-73
2022/12/29 17:26:29;;;;;;;;;;;;;;;13.07;59.32;96804.25;4214959;28;5715;-73
2022/12/29 17:28:33;;;;;;;;;;;;;;;13.06;59.75;96817.75;4219340;28;5711;-73
2022/12/29 17:30:35;;;;;;;;;;;;;;;13.04;59.71;96825.91;4213483;28;5120;-73
2022/12/29 17:32:39;;;;;;;;;;;;;;;13.05;60.08;96826.72;4213833;28;5713;-71
2022/12/29 17:34:43;;;;;;;;;;;;;;;13.08;59.78;96824.47;4212928;28;5938;-71
2022/12/29 17:36:46;;;;;;;;;;;;;;;13.11;60.03;96833.84;4212888;28;5687;-71
2022/12/29 17:38:49;;;;;;;;;;;;;;;13.09;60.04;96822.63;4214753;28;5711;-70
2022/12/29 17:40:52;;;;;;;;;;;;;;;13.08;59.87;96832.44;4215307;28;5609;-70
2022/12/29 17:42:57;;;;;;;;;;;;;;;13.10;60.10;96829.56;4207705;28;5695;-70
2022/12/29 17:45:01;;;;;;;;;;;;;;;13.09;59.83;96830.59;4213477;28;5620;-70
2022/12/29 17:47:03;;;;;;;;;;;;;;;13.08;60.18;96835.09;4216634;28;5724;-71
2022/12/29 17:49:11;;;;;;;;;;;;;;;13.08;60.03;96831.63;4213175;28;5700;-72
2022/12/29 17:51:15;;;;;;;;;;;;;;;13.10;60.18;96838.34;4214315;28;5846;-71
2022/12/29 17:53:21;;;;;;;;;;;;;;;13.09;60.42;96838.56;4211185;28;5744;-71
2022/12/29 17:55:25;;;;;;;;;;;;;;;13.09;60.04;96844.66;4213544;28;5696;-71
2022/12/29 17:57:36;;;;;;;;;;;;;;;13.08;60.01;96853.66;4212987;28;5612;-71
2022/12/29 17:59:39;;;;;;;;;;;;;;;13.07;60.15;96857.34;4216649;28;5825;-71
2022/12/29 18:01:42;;;;;;;;;;;;;;;13.07;60.20;96870.63;4208139;28;5711;-71
2022/12/29 18:03:48;;;;;;;;;;;;;;;13.08;60.47;96868.78;4213479;28;5852;-72
2022/12/29 18:05:51;;;;;;;;;;;;;;;13.08;60.15;96868.78;4217611;28;5613;-71
2022/12/29 18:07:57;;;;;;;;;;;;;;;13.06;60.50;96865.50;4192783;28;5738;-71
2022/12/29 18:10:00;;;;;;;;;;;;;;;13.06;60.42;96862.84;4218182;28;5736;-72
2022/12/29 18:12:03;;;;;;;;;;;;;;;13.06;60.32;96863.69;4215044;28;6780;-70
2022/12/29 18:14:06;;;;;;;;;;;;;;;13.06;60.33;96865.50;4217580;28;5596;-71
2022/12/29 18:16:11;;;;;;;;;;;;;;;13.03;60.35;96861.44;4216316;28;5604;-70
2022/12/29 18:18:15;;;;;;;;;;;;;;;13.03;60.58;96865.94;4217808;28;6165;-70
2022/12/29 18:20:18;;;;;;;;;;;;;;;13.03;60.72;96869.41;4218788;28;6464;-70
2022/12/29 18:22:22;;;;;;;;;;;;;;;13.03;60.58;96857.97;4217610;28;5818;-70
2022/12/29 18:24:27;;;;;;;;;;;;;;;13.05;60.53;96856.75;4213611;28;5653;-68
2022/12/29 18:26:34;;;;;;;;;;;;;;;13.07;60.49;96861.84;4214030;28;5620;-72
2022/12/29 18:28:37;;;;;;;;;;;;;;;13.09;60.60;96859.78;4221565;28;5778;-72
2022/12/29 18:30:39;;;;;;;;;;;;;;;13.07;60.61;96862.66;4215644;28;5634;-73
2022/12/29 18:32:42;;;;;;;;;;;;;;;13.07;60.56;96853.88;4216050;28;5679;-75
2022/12/29 18:34:45;;;;;;;;;;;;;;;13.07;60.72;96869.78;4213395;28;5747;-73
2022/12/29 18:36:48;;;;;;;;;;;;;;;13.07;60.99;96870.63;4220969;28;5699;-74
2022/12/29 18:38:53;;;;;;;;;;;;;;;13.06;60.75;96873.47;4214532;28;5785;-73
2022/12/29 18:40:58;;;;;;;;;;;;;;;13.07;61.08;96877.75;4217865;28;5080;-73
2022/12/29 18:43:01;;;;;;;;;;;;;;;13.04;61.02;96875.53;4215903;28;5612;-76
2022/12/29 18:45:15;;;;;;;;;;;;;;;13.08;60.84;96879.38;4215036;28;5624;-75
2022/12/29 18:47:18;;;;;;;;;;;;;;;13.08;60.83;96882.03;4215368;28;5596;-76
2022/12/29 18:49:20;;;;;;;;;;;;;;;13.07;61.13;96889.19;4217990;28;5732;-78
2022/12/29 18:51:25;;;;;;;;;;;;;;;13.07;61.17;96888.38;4217094;28;5631;-78
2022/12/29 18:53:28;;;;;;;;;;;;;;;13.07;61.35;96883.06;4214783;28;6250;-79
2022/12/29 18:55:30;;;;;;;;;;;;;;;13.06;61.06;96882.25;4218686;28;5624;-79
2022/12/29 18:57:35;;;;;;;;;;;;;;;13.06;61.42;96876.13;4217107;28;5679;-75
2022/12/29 18:59:37;;;;;;;;;;;;;;;13.06;61.40;96887.56;4216912;28;5711;-74
2022/12/29 19:01:40;;;;;;;;;;;;;;;13.05;61.32;96890.44;4216442;28;5605;-77
2022/12/29 19:03:43;;;;;;;;;;;;;;;13.07;61.54;96885.72;4217222;28;5619;-78
2022/12/29 19:05:47;;;;;;;;;;;;;;;13.06;61.18;96886.75;4211210;28;7674;-78
2022/12/29 19:07:51;;;;;;;;;;;;;;;13.07;61.33;96888.38;4217789;28;5088;-76
2022/12/29 19:09:54;;;;;;;;;;;;;;;13.07;61.45;96891.03;4213372;28;5624;-73
2022/12/29 19:11:57;;;;;;;;;;;;;;;13.05;61.32;96899.19;4217091;28;5795;-71
2022/12/29 19:14:01;;;;;;;;;;;;;;;13.05;61.42;96885.94;4214968;28;7235;-75
2022/12/29 19:16:13;;;;;;;;;;;;;;;13.05;61.49;96901.03;4199179;28;6342;-78
2022/12/29 19:18:19;;;;;;;;;;;;;;;13.05;61.47;96912.47;4214631;28;5640;-80
2022/12/29 19:20:43;;;;;;;;;;;;;;;13.05;61.48;96904.50;4217945;28;5784;-74
2022/12/29 19:22:45;;;;;;;;;;;;;;;13.03;61.77;96913.69;4216979;28;5627;-75
2022/12/29 19:24:48;;;;;;;;;;;;;;;13.02;61.76;96904.09;4213566;28;5767;-67
2022/12/29 19:26:56;;;;;;;;;;;;;;;13.03;61.43;96913.69;4209729;28;5720;-77
2022/12/29 19:29:00;;;;;;;;;;;;;;;13.01;61.74;96913.06;4208899;28;5733;-79
2022/12/29 19:31:03;;;;;;;;;;;;;;;13.03;61.94;96924.31;4211975;28;5692;-79
2022/12/29 19:33:06;;;;;;;;;;;;;;;13.04;61.69;96925.94;4216206;28;5100;-80
2022/12/29 19:35:12;;;;;;;;;;;;;;;13.02;61.90;96920.00;4216256;28;7703;-76
2022/12/29 19:37:15;;;;;;;;;;;;;;;13.00;61.75;96914.09;4216309;28;5750;-76
2022/12/29 19:39:17;;;;;;;;;;;;;;;12.99;61.75;96917.78;4215981;28;5612;-76
2022/12/29 19:41:20;;;;;;;;;;;;;;;12.96;61.86;96924.31;4215805;28;5108;-77
2022/12/29 19:43:23;;;;;;;;;;;;;;;12.93;61.88;96924.72;4215077;28;5692;-78
2022/12/29 19:45:27;;;;;;;;;;;;;;;12.93;62.19;96929.22;4215178;28;5762;-79
2022/12/29 19:47:31;;;;;;;;;;;;;;;12.95;62.28;96941.25;4213793;28;6319;-80
2022/12/29 19:49:34;;;;;;;;;;;;;;;12.97;62.18;96933.09;4216466;28;5688;-78
2022/12/29 19:51:37;;;;;;;;;;;;;;;12.97;61.94;96928.59;4216153;28;6305;-73
2022/12/29 19:53:41;;;;;;;;;;;;;;;12.99;62.14;96928.38;4214854;28;5612;-77
2022/12/29 19:55:44;;;;;;;;;;;;;;;13.01;61.85;96926.34;4214530;28;5680;-75
2022/12/29 19:57:47;;;;;;;;;;;;;;;13.00;62.10;96924.72;4215163;28;5604;-76
2022/12/29 19:59:50;;;;;;;;;;;;;;;12.98;61.86;96924.91;4216408;28;8176;-74
2022/12/29 20:01:55;;;;;;;;;;;;;;;12.98;62.11;96921.44;4211092;28;5691;-72
2022/12/29 20:03:58;;;;;;;;;;;;;;;12.97;62.14;96927.78;4215542;28;5781;-80
2022/12/29 20:06:01;;;;;;;;;;;;;;;12.98;62.31;96929.41;4216588;28;5719;-72
2022/12/29 20:08:04;;;;;;;;;;;;;;;12.99;62.37;96936.34;4216140;28;5724;-76
2022/12/29 20:10:08;;;;;;;;;;;;;;;12.97;62.13;96936.56;4215549;28;5629;-72
2022/12/29 20:12:11;;;;;;;;;;;;;;;12.94;62.18;96936.97;4215772;28;5617;-75
2022/12/29 20:14:14;;;;;;;;;;;;;;;12.94;62.52;96941.47;4212604;28;5695;-72
2022/12/29 20:16:18;;;;;;;;;;;;;;;12.92;62.47;96948.81;4216823;28;5885;-70
2022/12/29 20:18:23;;;;;;;;;;;;;;;12.93;62.37;96939.84;4216903;28;6933;-76
2022/12/29 20:20:33;;;;;;;;;;;;;;;12.94;62.43;96941.47;4198224;28;5627;-77
2022/12/29 20:22:36;;;;;;;;;;;;;;;12.95;62.66;96951.06;4216230;28;5839;-71
2022/12/29 20:24:39;;;;;;;;;;;;;;;12.95;62.51;96949.22;4215424;28;5707;-68
2022/12/29 20:26:53;;;;;;;;;;;;;;;12.96;62.58;96947.38;4214618;28;5617;-71
2022/12/29 20:28:57;;;;;;;;;;;;;;;12.95;62.43;96951.88;4215406;28;5699;-72
2022/12/29 20:31:02;;;;;;;;;;;;;;;12.97;62.49;96946.34;4215126;28;5612;-73
2022/12/29 20:33:05;;;;;;;;;;;;;;;12.96;62.42;96936.75;4214745;28;5607;-76
2022/12/29 20:35:13;;;;;;;;;;;;;;;12.96;62.54;96942.06;4216361;28;5710;-75
2022/12/29 20:37:15;;;;;;;;;;;;;;;12.97;62.72;96941.88;4216068;28;5740;-75
2022/12/29 20:39:20;;;;;;;;;;;;;;;12.97;62.52;96949.00;4215900;28;5600;-80
2022/12/29 20:41:23;;;;;;;;;;;;;;;12.97;62.45;96947.16;4215503;28;5780;-76
2022/12/29 20:43:25;;;;;;;;;;;;;;;12.96;62.67;96947.38;4212270;28;5823;-71
2022/12/29 20:45:28;;;;;;;;;;;;;;;12.97;62.64;96941.88;4213155;28;5642;-72
2022/12/29 20:47:31;;;;;;;;;;;;;;;12.98;62.72;96954.09;4214486;28;5612;-72
2022/12/29 20:49:35;;;;;;;;;;;;;;;12.99;62.84;96941.66;4214371;28;5698;-73
2022/12/29 20:51:42;;;;;;;;;;;;;;;12.99;63.06;96933.69;4215660;28;5713;-75
2022/12/29 20:54:04;;;;;;;;;;;;;;;12.99;62.77;96933.69;4208592;28;6006;-73
2022/12/29 20:56:10;;;;;;;;;;;;;;;13.00;62.78;96937.97;4213776;28;5715;-72
2022/12/29 20:58:13;;;;;;;;;;;;;;;12.98;62.83;96943.50;4209635;28;5769;-72
2022/12/29 21:00:29;;;;;;;;;;;;;;;12.99;62.95;96939.00;4211928;28;5882;-76
2022/12/29 21:02:32;;;;;;;;;;;;;;;12.98;63.18;96937.38;4215192;28;6313;-69
2022/12/29 21:04:35;;;;;;;;;;;;;;;12.99;62.86;96939.00;4213092;28;5687;-66
2022/12/29 21:06:59;;;;;;;;;;;;;;;12.98;63.03;96929.41;4206955;28;5635;-65
2022/12/29 21:09:02;;;;;;;;;;;;;;;12.97;62.90;96930.44;4213425;28;5775;-65
2022/12/29 21:11:05;;;;;;;;;;;;;;;12.96;63.00;96923.50;4211524;28;5700;-69